Suffolk, Texas
Current Conditions -  °F | °C
As of 3:15 AM on Wednesday 28 Jan 2015 (Local Time) from KJXI Reporting Station
Clear Clear  
Wind Chill: 52°   Ceiling: Unl
Heat Index: 52°   Visibility: 10mi
Dew Point: 40°   Wind: 3mph
Humidity: 63%   Direction: 170°S
Pressure: 30.13"   Gusts: NA
Location:  32.7353°N, 94.9492°W
Report Text: KJXI 280915Z AUTO 17003KT 10SM CLR 11/04 A3013 RMK AO2 T01090042
Loading
Personal Weather Stations






























Interactive Weather Map New forecast layout! Learn more

10-Day Weather Forecast

Advertisements
Track Severe Weather on mobile